createdAt,value
2023-05-09T00:02:35.081Z,39.58
2023-05-09T00:07:38.042Z,35.03
2023-05-09T00:12:42.173Z,37.88
2023-05-09T00:17:46.380Z,35.95
2023-05-09T00:22:49.237Z,25.13
2023-05-09T00:27:52.005Z,30.80
2023-05-09T00:32:54.983Z,23.35
2023-05-09T00:37:57.763Z,23.58
2023-05-09T00:43:00.916Z,19.45
2023-05-09T00:48:03.975Z,20.27
2023-05-09T00:53:06.985Z,16.20
2023-05-09T00:58:09.977Z,20.30
2023-05-09T01:03:13.003Z,20.08
2023-05-09T01:08:30.453Z,21.20
2023-05-09T01:13:33.251Z,18.08
2023-05-09T01:18:41.362Z,18.50
2023-05-09T01:23:53.180Z,20.27
2023-05-09T01:29:19.271Z,17.65
2023-05-09T01:34:23.405Z,13.70
2023-05-09T01:39:27.698Z,15.45
2023-05-09T01:44:36.338Z,14.43
2023-05-09T01:49:40.777Z,15.50
2023-05-09T01:54:45.503Z,17.77
2023-05-09T01:59:49.472Z,14.53
2023-05-09T02:04:54.127Z,12.98
2023-05-09T02:09:59.965Z,12.20
2023-05-09T02:20:10.344Z,10.57
2023-05-09T02:25:15.979Z,9.20
2023-05-09T02:30:24.752Z,13.48
2023-05-09T02:35:29.606Z,14.30
2023-05-09T02:40:36.724Z,10.88
2023-05-09T02:45:39.617Z,9.93
2023-05-09T02:50:43.840Z,9.02
2023-05-09T02:55:46.956Z,7.97
2023-05-09T03:00:49.793Z,8.80
2023-05-09T03:05:52.677Z,12.18
2023-05-09T03:10:55.726Z,7.35
2023-05-09T03:16:00.214Z,6.18
2023-05-09T03:21:03.323Z,7.85
2023-05-09T03:26:07.401Z,6.45
2023-05-09T03:31:12.036Z,7.03
2023-05-09T03:36:15.140Z,7.00
2023-05-09T03:41:19.791Z,7.43
2023-05-09T03:46:24.141Z,6.25
2023-05-09T03:51:27.435Z,7.40
2023-05-09T03:56:32.276Z,6.77
2023-05-09T04:01:35.408Z,7.15
2023-05-09T04:06:39.723Z,7.65
2023-05-09T04:11:45.240Z,12.48
2023-05-09T04:16:49.351Z,9.57
2023-05-09T04:21:52.554Z,12.82
2023-05-09T04:26:55.524Z,6.82
2023-05-09T04:32:02.521Z,6.03
2023-05-09T04:37:06.010Z,6.50
2023-05-09T04:42:11.213Z,8.23
2023-05-09T04:47:14.147Z,8.45
2023-05-09T04:52:18.188Z,9.82
2023-05-09T04:57:21.513Z,7.72
2023-05-09T05:02:30.058Z,6.18
2023-05-09T05:07:32.870Z,8.25
2023-05-09T05:12:36.187Z,6.18
2023-05-09T05:17:40.571Z,5.73
2023-05-09T05:22:45.283Z,5.97
2023-05-09T05:27:48.636Z,6.10
2023-05-09T05:32:52.041Z,6.70
2023-05-09T05:37:56.775Z,8.17
2023-05-09T05:43:01.114Z,5.97
2023-05-09T05:48:04.750Z,5.18
2023-05-09T05:53:08.326Z,5.38
2023-05-09T05:58:11.393Z,6.25
2023-05-09T06:03:15.066Z,5.20
2023-05-09T06:08:23.256Z,4.68
2023-05-09T06:13:26.409Z,7.03
2023-05-09T06:18:38.121Z,6.35
2023-05-09T06:23:56.985Z,7.07
2023-05-09T06:29:04.835Z,8.13
2023-05-09T06:34:08.105Z,7.50
2023-05-09T06:39:11.010Z,5.88
2023-05-09T06:44:13.878Z,4.47
2023-05-09T06:49:16.689Z,8.90
2023-05-09T06:54:19.655Z,11.20
2023-05-09T06:59:22.567Z,8.90
2023-05-09T07:04:25.386Z,8.63
2023-05-09T07:09:31.070Z,6.38
2023-05-09T07:14:33.850Z,7.90
2023-05-09T07:19:36.637Z,5.60
2023-05-09T07:24:39.553Z,6.35
2023-05-09T07:29:42.406Z,8.43
2023-05-09T07:34:45.722Z,8.60
2023-05-09T07:39:48.688Z,8.98
2023-05-09T07:44:51.616Z,10.90
2023-05-09T07:49:54.338Z,7.68
2023-05-09T07:54:57.287Z,11.70
2023-05-09T08:00:00.046Z,8.80
2023-05-09T08:05:03.740Z,7.93
2023-05-09T08:10:07.300Z,7.90
2023-05-09T08:15:10.553Z,7.93
2023-05-09T08:20:13.718Z,29.45
2023-05-09T08:25:18.624Z,9.73
2023-05-09T08:30:21.528Z,6.40
2023-05-09T08:35:25.067Z,13.65
2023-05-09T08:40:27.857Z,7.88
2023-05-09T08:45:31.260Z,9.82
2023-05-09T08:50:35.914Z,11.95
2023-05-09T08:55:39.113Z,13.07
2023-05-09T09:00:42.196Z,14.68
2023-05-09T09:05:45.737Z,10.85
2023-05-09T09:10:48.776Z,9.45
2023-05-09T09:15:53.790Z,10.13
2023-05-09T09:21:07.009Z,10.63
2023-05-09T09:26:10.044Z,7.97
2023-05-09T09:31:44.765Z,8.02
2023-05-09T09:36:48.812Z,10.52
2023-05-09T09:41:51.679Z,11.07
2023-05-09T09:46:56.248Z,14.40
2023-05-09T09:51:59.722Z,14.13
2023-05-09T09:57:03.119Z,11.63
2023-05-09T10:02:09.974Z,14.30
2023-05-09T10:07:15.122Z,16.33
2023-05-09T10:12:20.593Z,29.02
2023-05-09T10:17:24.027Z,12.87
2023-05-09T10:22:27.060Z,14.93
2023-05-09T10:27:32.699Z,8.38
2023-05-09T10:32:52.887Z,13.48
2023-05-09T10:37:59.339Z,16.85
2023-05-09T10:43:02.193Z,11.98
2023-05-09T10:48:09.238Z,10.02
2023-05-09T10:53:14.532Z,12.95
2023-05-09T10:58:29.347Z,8.55
2023-05-09T11:03:53.975Z,12.48
2023-05-09T11:08:56.823Z,17.17
2023-05-09T11:13:59.590Z,13.68
2023-05-09T11:19:02.536Z,24.20
2023-05-09T11:24:17.533Z,19.60
2023-05-09T11:29:20.339Z,23.55
2023-05-09T11:34:23.197Z,11.80
2023-05-09T11:39:26.165Z,12.52
2023-05-09T11:44:31.248Z,13.60
2023-05-09T11:49:34.064Z,15.55
2023-05-09T11:54:39.629Z,15.55
2023-05-09T12:04:45.247Z,19.63
2023-05-09T12:09:50.149Z,21.88
2023-05-09T12:14:53.719Z,21.00
2023-05-09T12:20:00.276Z,20.83
2023-05-09T12:25:07.720Z,24.90
2023-05-09T12:30:11.192Z,32.45
2023-05-09T12:35:14.381Z,30.45
2023-05-09T12:40:17.475Z,35.78
2023-05-09T12:45:20.676Z,36.63
2023-05-09T12:50:23.473Z,45.25
2023-05-09T12:55:26.226Z,40.15
2023-05-09T13:00:29.358Z,38.47
2023-05-09T13:05:32.613Z,32.45
2023-05-09T13:10:35.704Z,33.53
2023-05-09T13:15:38.583Z,31.80
2023-05-09T13:20:41.455Z,32.03
2023-05-09T13:25:44.649Z,27.90
2023-05-09T13:30:47.620Z,24.30
2023-05-09T13:35:51.347Z,18.77
2023-05-09T13:40:54.256Z,19.73
2023-05-09T13:45:57.164Z,18.55
2023-05-09T13:51:01.623Z,19.48
2023-05-09T13:56:04.656Z,15.23
2023-05-09T14:01:07.949Z,24.05
2023-05-09T14:06:12.978Z,23.30
2023-05-09T14:11:16.985Z,21.20
2023-05-09T14:16:21.496Z,17.65
2023-05-09T14:21:24.294Z,24.75
2023-05-09T14:26:27.266Z,17.90
2023-05-09T14:31:30.185Z,18.52
2023-05-09T14:36:33.474Z,14.30
2023-05-09T14:41:36.672Z,14.88
2023-05-09T14:46:39.541Z,13.65
2023-05-09T14:51:42.386Z,17.00
2023-05-09T14:56:45.372Z,6.63
2023-05-09T15:01:48.757Z,5.03
2023-05-09T15:06:51.514Z,6.72
2023-05-09T15:11:55.302Z,4.72
2023-05-09T15:17:01.669Z,7.68
2023-05-09T15:22:05.241Z,7.88
2023-05-09T15:27:08.118Z,11.48
2023-05-09T15:32:11.266Z,8.82
2023-05-09T15:37:14.240Z,7.97
2023-05-09T15:42:17.062Z,7.63
2023-05-09T15:47:20.031Z,6.35
2023-05-09T15:52:22.719Z,7.07
2023-05-09T15:57:26.024Z,6.40
2023-05-09T16:02:29.452Z,7.57
2023-05-09T16:07:33.989Z,8.45
2023-05-09T16:12:38.310Z,11.80
2023-05-09T16:17:41.639Z,3.40
2023-05-09T16:22:44.569Z,9.43
2023-05-09T16:27:47.356Z,3.67
2023-05-09T16:32:50.239Z,3.10
2023-05-09T16:37:53.042Z,14.68
2023-05-09T16:42:56.160Z,13.57
2023-05-09T16:48:00.750Z,4.45
2023-05-09T16:53:05.198Z,5.63
2023-05-09T16:58:08.217Z,7.22
2023-05-09T17:03:11.174Z,5.57
2023-05-09T17:08:13.980Z,3.67
2023-05-09T17:13:16.782Z,6.45
2023-05-09T17:18:33.060Z,2.40
2023-05-09T17:23:39.302Z,5.25
2023-05-09T17:28:42.034Z,7.20
2023-05-09T17:33:44.818Z,6.40
2023-05-09T17:38:47.717Z,6.45
2023-05-09T17:43:52.356Z,7.80
2023-05-09T17:48:55.468Z,6.97
2023-05-09T17:53:58.368Z,10.60
2023-05-09T17:59:01.163Z,9.45
2023-05-09T18:04:04.078Z,8.15
2023-05-09T18:09:07.428Z,4.53
2023-05-09T18:14:10.253Z,6.45
2023-05-09T18:19:13.250Z,6.95
2023-05-09T18:24:16.990Z,8.73
2023-05-09T18:29:20.030Z,6.88
2023-05-09T18:34:22.886Z,6.22
2023-05-09T18:39:26.119Z,5.80
2023-05-09T18:44:30.297Z,8.18
2023-05-09T18:49:33.108Z,8.00
2023-05-09T18:54:38.596Z,8.55
2023-05-09T18:59:41.373Z,6.88
2023-05-09T19:04:46.497Z,5.30
2023-05-09T19:09:49.814Z,5.03
2023-05-09T19:14:52.688Z,5.97
2023-05-09T19:19:55.609Z,9.32
2023-05-09T19:24:59.272Z,6.63
2023-05-09T19:30:02.195Z,6.00
2023-05-09T19:35:06.146Z,4.97
2023-05-09T19:40:09.702Z,5.80
2023-05-09T19:45:12.784Z,5.60
2023-05-09T19:50:22.240Z,6.63
2023-05-09T19:55:25.117Z,6.95
2023-05-09T20:00:28.347Z,6.78
2023-05-09T20:05:32.849Z,5.63
2023-05-09T20:10:35.839Z,7.90
2023-05-09T20:15:39.128Z,4.70
2023-05-09T20:20:42.657Z,4.18
2023-05-09T20:25:45.440Z,3.90
2023-05-09T20:30:48.896Z,3.88
2023-05-09T20:35:51.749Z,5.22
2023-05-09T20:40:54.523Z,4.13
2023-05-09T20:45:57.534Z,3.50
2023-05-09T20:51:00.771Z,5.35
2023-05-09T20:56:03.945Z,3.50
2023-05-09T21:01:06.990Z,3.95
2023-05-09T21:06:09.873Z,4.50
2023-05-09T21:11:12.758Z,3.17
2023-05-09T21:16:15.552Z,3.63
2023-05-09T21:21:18.578Z,3.40
2023-05-09T21:26:23.435Z,4.38
2023-05-09T21:31:27.054Z,4.13
2023-05-09T21:36:29.972Z,4.78
2023-05-09T21:41:32.838Z,3.50
2023-05-09T21:46:36.226Z,4.03
2023-05-09T21:51:39.279Z,4.80
2023-05-09T21:56:43.009Z,5.28
2023-05-09T22:01:46.759Z,2.67
2023-05-09T22:06:49.650Z,6.22
2023-05-09T22:11:53.404Z,7.40
2023-05-09T22:16:56.280Z,7.88
2023-05-09T22:21:59.484Z,3.42
2023-05-09T22:27:02.509Z,4.97
2023-05-09T22:32:08.005Z,3.20
2023-05-09T22:37:11.095Z,4.88
2023-05-09T22:42:13.908Z,4.07
2023-05-09T22:47:16.970Z,4.53
2023-05-09T22:52:20.005Z,4.20
2023-05-09T22:57:24.167Z,4.78
2023-05-09T23:02:27.162Z,7.47
2023-05-09T23:07:30.133Z,8.57
2023-05-09T23:12:33.076Z,6.60
2023-05-09T23:17:35.950Z,8.98
2023-05-09T23:22:38.950Z,10.13
2023-05-09T23:27:42.445Z,7.93
2023-05-09T23:32:45.339Z,11.10
2023-05-09T23:37:48.167Z,12.80
2023-05-09T23:42:51.076Z,9.43
2023-05-09T23:47:54.178Z,14.75
2023-05-09T23:52:57.000Z,7.65
2023-05-09T23:58:01.016Z,15.23
